createdAt,value
2023-12-26T00:01:47.262Z,99.90
2023-12-26T00:04:32.493Z,99.90
2023-12-26T00:07:18.033Z,99.90
2023-12-26T00:10:04.069Z,99.90
2023-12-26T00:12:49.627Z,99.90
2023-12-26T00:15:35.253Z,99.90
2023-12-26T00:18:20.829Z,99.90
2023-12-26T00:21:06.504Z,99.90
2023-12-26T00:23:51.743Z,99.90
2023-12-26T00:26:40.950Z,99.90
2023-12-26T00:29:27.209Z,99.90
2023-12-26T00:32:13.489Z,99.90
2023-12-26T00:34:59.890Z,99.90
2023-12-26T00:37:45.211Z,99.90
2023-12-26T00:40:30.751Z,99.90
2023-12-26T00:43:16.169Z,99.90
2023-12-26T00:46:01.966Z,99.90
2023-12-26T00:48:47.467Z,99.90
2023-12-26T00:51:33.153Z,99.90
2023-12-26T00:54:18.297Z,99.90
2023-12-26T00:57:04.099Z,99.90
2023-12-26T00:59:49.720Z,99.90
2023-12-26T01:02:35.346Z,99.90
2023-12-26T01:05:21.413Z,99.90
2023-12-26T01:08:07.172Z,99.90
2023-12-26T01:10:52.809Z,99.90
2023-12-26T01:13:38.309Z,99.90
2023-12-26T01:16:28.544Z,99.90
2023-12-26T01:19:15.111Z,99.90
2023-12-26T01:22:00.903Z,99.90
2023-12-26T01:24:46.359Z,99.90
2023-12-26T01:27:34.153Z,99.90
2023-12-26T01:30:20.530Z,99.90
2023-12-26T01:33:09.264Z,99.90
2023-12-26T01:35:54.978Z,99.90
2023-12-26T01:38:40.589Z,99.90
2023-12-26T01:41:26.334Z,99.90
2023-12-26T01:44:11.761Z,99.90
2023-12-26T01:46:57.506Z,99.90
2023-12-26T01:49:44.933Z,99.90
2023-12-26T01:52:31.544Z,99.90
2023-12-26T01:55:19.413Z,99.90
2023-12-26T01:58:05.450Z,99.90
2023-12-26T02:00:50.992Z,99.90
2023-12-26T02:03:36.682Z,99.90
2023-12-26T02:06:22.136Z,99.90
2023-12-26T02:09:11.513Z,99.90
2023-12-26T02:11:58.056Z,99.90
2023-12-26T02:14:45.315Z,99.90
2023-12-26T02:17:32.503Z,99.90
2023-12-26T02:20:18.102Z,99.90
2023-12-26T02:23:04.754Z,99.90
2023-12-26T02:25:52.149Z,99.90
2023-12-26T02:28:39.120Z,99.90
2023-12-26T02:31:25.548Z,99.90
2023-12-26T02:34:11.461Z,99.90
2023-12-26T02:36:57.125Z,99.90
2023-12-26T02:39:44.512Z,99.90
2023-12-26T02:42:31.192Z,99.90
2023-12-26T02:45:17.095Z,99.90
2023-12-26T02:48:02.417Z,99.90
2023-12-26T02:50:49.174Z,99.90
2023-12-26T02:53:35.229Z,99.90
2023-12-26T02:56:20.951Z,99.90
2023-12-26T02:59:06.682Z,99.90
2023-12-26T03:01:51.957Z,99.90
2023-12-26T03:04:37.617Z,99.90
2023-12-26T03:07:23.332Z,99.90
2023-12-26T03:10:10.526Z,99.90
2023-12-26T03:12:56.697Z,99.90
2023-12-26T03:15:42.581Z,99.90
2023-12-26T03:18:29.772Z,99.90
2023-12-26T03:21:15.408Z,99.90
2023-12-26T03:24:01.458Z,99.90
2023-12-26T03:26:47.339Z,99.90
2023-12-26T03:29:32.908Z,99.90
2023-12-26T03:32:22.231Z,99.90
2023-12-26T03:35:08.213Z,99.90
2023-12-26T03:37:53.771Z,99.90
2023-12-26T03:40:39.340Z,99.90
2023-12-26T03:43:24.802Z,99.90
2023-12-26T03:46:10.356Z,99.90
2023-12-26T03:48:56.285Z,99.90
2023-12-26T03:51:42.026Z,99.90
2023-12-26T03:54:27.461Z,99.90
2023-12-26T03:57:13.013Z,99.90
2023-12-26T03:59:59.328Z,99.90
2023-12-26T04:02:45.486Z,99.90
2023-12-26T04:05:33.686Z,99.90
2023-12-26T04:08:19.097Z,99.90
2023-12-26T04:11:05.120Z,99.90
2023-12-26T04:13:51.511Z,99.90
2023-12-26T04:16:37.985Z,99.90
2023-12-26T04:19:26.858Z,99.90
2023-12-26T04:22:12.528Z,99.90
2023-12-26T04:24:58.092Z,99.90
2023-12-26T04:27:43.666Z,99.90
2023-12-26T04:30:29.551Z,99.90
2023-12-26T04:33:15.312Z,99.90
2023-12-26T04:36:01.671Z,99.90
2023-12-26T04:38:47.698Z,99.90
2023-12-26T04:41:33.617Z,99.90
2023-12-26T04:44:19.456Z,99.90
2023-12-26T04:47:04.860Z,99.90
2023-12-26T04:49:51.979Z,99.90
2023-12-26T04:52:37.749Z,99.90
2023-12-26T04:55:23.645Z,99.90
2023-12-26T04:58:09.380Z,99.90
2023-12-26T05:00:55.193Z,99.90
2023-12-26T05:03:41.208Z,99.90
2023-12-26T05:06:27.104Z,99.90
2023-12-26T05:09:12.598Z,99.90
2023-12-26T05:11:58.808Z,99.90
2023-12-26T05:14:44.647Z,99.90
2023-12-26T05:17:30.375Z,99.90
2023-12-26T05:20:26.441Z,99.90
2023-12-26T05:23:16.443Z,99.90
2023-12-26T05:26:08.008Z,99.90
2023-12-26T05:29:00.085Z,99.90
2023-12-26T05:31:46.018Z,99.90
2023-12-26T05:34:31.851Z,99.90
2023-12-26T05:37:18.171Z,99.90
2023-12-26T05:40:04.223Z,99.90
2023-12-26T05:42:54.761Z,99.90
2023-12-26T05:45:43.715Z,99.90
2023-12-26T05:48:29.380Z,99.90
2023-12-26T05:51:14.937Z,99.30
2023-12-26T05:54:00.698Z,99.00
2023-12-26T05:56:47.544Z,99.00
2023-12-26T05:59:33.160Z,98.60
2023-12-26T06:02:19.706Z,98.00
2023-12-26T06:05:05.505Z,98.20
2023-12-26T06:07:51.067Z,98.10
2023-12-26T06:10:36.460Z,98.30
2023-12-26T06:13:22.510Z,98.20
2023-12-26T06:16:07.893Z,97.90
2023-12-26T06:18:55.315Z,97.70
2023-12-26T06:21:41.742Z,97.40
2023-12-26T06:24:27.329Z,97.30
2023-12-26T06:27:13.053Z,96.90
2023-12-26T06:29:58.683Z,97.20
2023-12-26T06:32:44.450Z,96.60
2023-12-26T06:35:30.818Z,96.70
2023-12-26T06:38:16.669Z,96.80
2023-12-26T06:41:03.585Z,96.70
2023-12-26T06:43:48.972Z,96.80
2023-12-26T06:46:35.586Z,96.70
2023-12-26T06:49:21.331Z,96.30
2023-12-26T06:52:08.884Z,96.20
2023-12-26T06:54:54.329Z,96.10
2023-12-26T06:57:39.672Z,96.20
2023-12-26T07:00:25.876Z,96.00
2023-12-26T07:03:12.693Z,95.80
2023-12-26T07:05:58.389Z,95.90
2023-12-26T07:08:44.164Z,95.50
2023-12-26T07:11:30.757Z,95.80
2023-12-26T07:14:19.611Z,95.90
2023-12-26T07:17:05.815Z,95.90
2023-12-26T07:19:51.322Z,96.00
2023-12-26T07:22:37.133Z,95.90
2023-12-26T07:25:22.731Z,95.70
2023-12-26T07:28:08.479Z,95.20
2023-12-26T07:30:53.879Z,95.00
2023-12-26T07:33:40.113Z,94.80
2023-12-26T07:36:25.976Z,94.90
2023-12-26T07:39:11.332Z,95.00
2023-12-26T07:41:57.181Z,95.00
2023-12-26T07:44:42.778Z,95.20
2023-12-26T07:47:28.409Z,95.40
2023-12-26T07:50:14.424Z,95.70
2023-12-26T07:52:59.865Z,96.10
2023-12-26T07:55:45.615Z,96.20
2023-12-26T07:58:31.857Z,96.40
2023-12-26T08:01:18.047Z,96.40
2023-12-26T08:04:03.998Z,96.90
2023-12-26T08:06:51.800Z,97.00
2023-12-26T08:09:37.714Z,96.80
2023-12-26T08:12:24.654Z,96.90
2023-12-26T08:15:10.903Z,96.50
2023-12-26T08:17:57.033Z,96.60
2023-12-26T08:20:42.484Z,96.90
2023-12-26T08:23:28.093Z,97.00
2023-12-26T08:26:13.782Z,96.90
2023-12-26T08:28:59.562Z,97.00
2023-12-26T08:31:45.084Z,96.70
2023-12-26T08:34:30.527Z,96.80
2023-12-26T08:37:15.913Z,96.80
2023-12-26T08:40:01.375Z,96.70
2023-12-26T08:42:47.297Z,96.70
2023-12-26T08:45:37.497Z,96.70
2023-12-26T08:48:23.341Z,96.60
2023-12-26T08:51:09.052Z,97.00
2023-12-26T08:53:55.808Z,96.60
2023-12-26T08:56:42.311Z,96.80
2023-12-26T08:59:28.176Z,96.80
2023-12-26T09:02:13.641Z,96.80
2023-12-26T09:05:00.683Z,96.90
2023-12-26T09:07:46.525Z,97.00
2023-12-26T09:10:32.082Z,96.90
2023-12-26T09:13:22.245Z,96.90
2023-12-26T09:16:09.579Z,96.90
2023-12-26T09:18:56.101Z,96.80
2023-12-26T09:21:41.632Z,96.70
2023-12-26T09:24:27.368Z,96.30
2023-12-26T09:27:12.688Z,96.40
2023-12-26T09:29:58.350Z,96.20
2023-12-26T09:32:44.020Z,96.30
2023-12-26T09:35:32.157Z,96.10
2023-12-26T09:38:20.606Z,96.00
2023-12-26T09:41:09.630Z,96.00
2023-12-26T09:43:57.248Z,95.70
2023-12-26T09:46:42.918Z,95.50
2023-12-26T09:49:29.474Z,95.30
2023-12-26T09:52:18.637Z,94.90
2023-12-26T09:55:04.757Z,95.10
2023-12-26T09:57:54.352Z,94.60
2023-12-26T10:00:40.671Z,94.30
2023-12-26T10:03:26.639Z,94.10
2023-12-26T10:06:12.571Z,93.90
2023-12-26T10:08:58.850Z,93.00
2023-12-26T10:11:45.528Z,93.00
2023-12-26T10:14:32.012Z,92.60
2023-12-26T10:17:18.715Z,92.50
2023-12-26T10:20:05.319Z,92.70
2023-12-26T10:22:50.699Z,92.20
2023-12-26T10:25:36.193Z,92.00
2023-12-26T10:28:21.931Z,91.60
2023-12-26T10:31:15.281Z,91.60
2023-12-26T10:34:18.076Z,91.00
2023-12-26T10:37:04.177Z,90.70
2023-12-26T10:39:52.948Z,90.60
2023-12-26T10:42:40.790Z,90.20
2023-12-26T10:45:26.928Z,88.90
2023-12-26T10:48:13.987Z,86.40
2023-12-26T10:51:03.453Z,85.50
2023-12-26T10:54:00.483Z,83.70
2023-12-26T10:56:47.794Z,83.30
2023-12-26T11:00:29.800Z,82.20
2023-12-26T11:04:30.403Z,82.70
2023-12-26T11:08:30.931Z,83.30
2023-12-26T11:12:31.675Z,82.80
2023-12-26T11:16:32.165Z,82.10
2023-12-26T11:20:32.679Z,82.00
2023-12-26T11:24:33.400Z,82.20
2023-12-26T11:28:33.795Z,82.30
2023-12-26T11:32:34.504Z,82.70
2023-12-26T11:36:35.315Z,82.80
2023-12-26T11:40:35.825Z,82.60
2023-12-26T11:44:36.489Z,82.10
2023-12-26T11:48:37.288Z,81.10
2023-12-26T11:52:38.303Z,80.40
2023-12-26T11:56:38.844Z,77.90
2023-12-26T12:00:39.971Z,76.80
2023-12-26T12:04:40.677Z,76.20
2023-12-26T12:08:41.312Z,77.70
2023-12-26T12:12:42.148Z,77.70
2023-12-26T12:16:42.923Z,77.50
2023-12-26T12:20:43.914Z,77.40
2023-12-26T12:24:44.702Z,77.40
2023-12-26T12:28:45.383Z,77.30
2023-12-26T12:32:46.230Z,78.10
2023-12-26T12:36:47.186Z,78.30
2023-12-26T12:40:48.254Z,78.40
2023-12-26T12:44:49.120Z,78.10
2023-12-26T12:48:49.667Z,77.70
2023-12-26T12:52:50.885Z,77.20
2023-12-26T12:56:51.589Z,77.40
2023-12-26T13:00:52.164Z,76.90
2023-12-26T13:04:52.702Z,77.30
2023-12-26T13:08:53.361Z,78.20
2023-12-26T13:12:54.437Z,77.30
2023-12-26T13:16:55.558Z,76.40
2023-12-26T13:20:56.312Z,74.60
2023-12-26T13:24:59.634Z,74.20
2023-12-26T13:29:00.988Z,73.90
2023-12-26T13:33:01.733Z,74.70
2023-12-26T13:37:02.891Z,75.40
2023-12-26T13:41:04.031Z,76.20
2023-12-26T13:45:05.161Z,77.20
2023-12-26T13:49:05.765Z,77.80
2023-12-26T13:52:47.643Z,77.90
2023-12-26T13:56:10.795Z,78.90
2023-12-26T13:59:34.001Z,79.00
2023-12-26T14:02:57.422Z,79.60
2023-12-26T14:06:21.052Z,80.00
2023-12-26T14:09:44.268Z,79.80
2023-12-26T14:12:30.820Z,79.80
2023-12-26T14:15:16.461Z,80.20
2023-12-26T14:18:40.015Z,80.20
2023-12-26T14:22:03.615Z,79.50
2023-12-26T14:25:29.162Z,79.90
2023-12-26T14:28:52.715Z,80.20
2023-12-26T14:31:38.244Z,80.00
2023-12-26T14:34:23.829Z,80.30
2023-12-26T14:37:46.772Z,80.00
2023-12-26T14:41:09.637Z,80.40
2023-12-26T14:43:56.787Z,80.50
2023-12-26T14:46:42.733Z,80.40
2023-12-26T14:49:28.813Z,80.30
2023-12-26T14:52:14.517Z,80.50
2023-12-26T14:55:00.458Z,80.90
2023-12-26T14:57:46.232Z,81.20
2023-12-26T15:00:32.158Z,81.70
2023-12-26T15:03:24.871Z,82.10
2023-12-26T15:06:17.858Z,82.10
2023-12-26T15:09:04.686Z,82.30
2023-12-26T15:11:50.407Z,82.60
2023-12-26T15:14:42.493Z,83.00
2023-12-26T15:17:29.599Z,83.10
2023-12-26T15:20:14.869Z,83.50
2023-12-26T15:23:00.618Z,83.90
2023-12-26T15:25:46.051Z,83.90
2023-12-26T15:28:31.751Z,84.00
2023-12-26T15:31:20.358Z,84.40
2023-12-26T15:34:10.566Z,84.50
2023-12-26T15:36:56.366Z,85.00
2023-12-26T15:39:43.041Z,85.40
2023-12-26T15:42:28.895Z,85.80
2023-12-26T15:45:14.823Z,86.40
2023-12-26T15:48:03.865Z,86.30
2023-12-26T15:50:50.936Z,86.30
2023-12-26T15:53:36.716Z,86.70
2023-12-26T15:56:25.044Z,86.90
2023-12-26T15:59:10.558Z,87.10
2023-12-26T16:01:55.977Z,87.40
2023-12-26T16:04:42.120Z,87.40
2023-12-26T16:07:27.359Z,87.30
2023-12-26T16:10:14.340Z,87.70
2023-12-26T16:13:00.266Z,88.20
2023-12-26T16:15:47.099Z,88.40
2023-12-26T16:18:33.083Z,88.40
2023-12-26T16:21:19.291Z,88.60
2023-12-26T16:24:05.217Z,88.70
2023-12-26T16:26:50.657Z,88.50
2023-12-26T16:29:37.890Z,88.60
2023-12-26T16:32:23.272Z,88.60
2023-12-26T16:35:09.837Z,89.10
2023-12-26T16:37:55.377Z,89.60
2023-12-26T16:40:41.707Z,90.00
2023-12-26T16:43:27.050Z,90.10
2023-12-26T16:46:13.781Z,90.10
2023-12-26T16:48:59.652Z,90.40
2023-12-26T16:51:45.043Z,90.50
2023-12-26T16:54:30.765Z,90.60
2023-12-26T16:57:16.660Z,90.60
2023-12-26T17:00:03.097Z,90.70
2023-12-26T17:02:48.826Z,90.90
2023-12-26T17:05:34.433Z,91.00
2023-12-26T17:08:19.847Z,91.10
2023-12-26T17:11:12.471Z,91.10
2023-12-26T17:13:57.952Z,91.10
2023-12-26T17:16:43.893Z,91.30
2023-12-26T17:19:30.934Z,91.60
2023-12-26T17:22:16.764Z,91.70
2023-12-26T17:25:02.115Z,91.70
2023-12-26T17:27:48.122Z,91.90
2023-12-26T17:30:33.507Z,92.00
2023-12-26T17:33:19.569Z,92.10
2023-12-26T17:36:05.647Z,92.60
2023-12-26T17:38:51.617Z,92.40
2023-12-26T17:41:37.343Z,92.40
2023-12-26T17:44:23.148Z,92.40
2023-12-26T17:47:08.809Z,92.40
2023-12-26T17:49:55.899Z,92.50
2023-12-26T17:52:42.380Z,92.80
2023-12-26T17:55:27.896Z,92.80
2023-12-26T17:58:13.250Z,93.10
2023-12-26T18:00:59.210Z,93.20
2023-12-26T18:03:45.754Z,93.30
2023-12-26T18:06:31.796Z,93.20
2023-12-26T18:09:17.561Z,93.40
2023-12-26T18:12:03.348Z,93.50
2023-12-26T18:14:48.867Z,93.30
2023-12-26T18:17:34.646Z,93.40
2023-12-26T18:20:20.090Z,93.50
2023-12-26T18:23:05.657Z,93.70
2023-12-26T18:25:52.560Z,93.50
2023-12-26T18:28:37.910Z,93.50
2023-12-26T18:31:24.021Z,93.60
2023-12-26T18:34:09.637Z,93.90
2023-12-26T18:36:56.205Z,93.80
2023-12-26T18:39:43.422Z,94.00
2023-12-26T18:42:29.697Z,93.90
2023-12-26T18:45:15.550Z,94.00
2023-12-26T18:48:01.841Z,94.10
2023-12-26T18:50:47.374Z,94.10
2023-12-26T18:53:32.979Z,94.30
2023-12-26T18:56:18.664Z,94.40
2023-12-26T18:59:04.379Z,94.50
2023-12-26T19:01:52.714Z,94.70
2023-12-26T19:04:40.867Z,94.90
2023-12-26T19:07:26.461Z,95.00
2023-12-26T19:10:11.755Z,95.20
2023-12-26T19:13:00.564Z,95.20
2023-12-26T19:15:46.403Z,95.20
2023-12-26T19:18:32.454Z,95.40
2023-12-26T19:21:18.109Z,95.30
2023-12-26T19:24:03.730Z,95.20
2023-12-26T19:26:49.571Z,95.40
2023-12-26T19:29:35.485Z,95.50
2023-12-26T19:32:20.923Z,95.60
2023-12-26T19:35:07.326Z,95.70
2023-12-26T19:37:52.646Z,96.00
2023-12-26T19:40:38.472Z,96.10
2023-12-26T19:43:23.754Z,96.10
2023-12-26T19:46:12.597Z,96.10
2023-12-26T19:48:58.209Z,96.10
2023-12-26T19:51:43.935Z,96.40
2023-12-26T19:54:30.731Z,96.40
2023-12-26T19:57:17.230Z,96.50
2023-12-26T20:00:05.345Z,96.40
2023-12-26T20:02:53.403Z,96.40
2023-12-26T20:05:39.120Z,96.50
2023-12-26T20:08:24.248Z,96.80
2023-12-26T20:13:58.325Z,97.00
2023-12-26T20:16:51.400Z,96.90
2023-12-26T20:19:38.651Z,96.90
2023-12-26T20:22:24.209Z,97.00
2023-12-26T20:25:09.640Z,97.10
2023-12-26T20:27:55.398Z,97.20
2023-12-26T20:30:40.775Z,97.30
2023-12-26T20:33:26.934Z,97.30
2023-12-26T20:36:12.148Z,97.20
2023-12-26T20:38:58.040Z,97.20
2023-12-26T20:41:44.147Z,97.20
2023-12-26T20:44:29.594Z,97.40
2023-12-26T20:47:14.976Z,97.50
2023-12-26T20:50:00.586Z,97.50
2023-12-26T20:52:46.318Z,97.50
2023-12-26T20:55:31.653Z,97.60
2023-12-26T20:58:17.232Z,97.60
2023-12-26T21:01:03.070Z,97.70
2023-12-26T21:03:49.693Z,98.00
2023-12-26T21:06:36.874Z,98.10
2023-12-26T21:09:22.452Z,98.30
2023-12-26T21:12:09.586Z,98.20
2023-12-26T21:14:55.079Z,98.10
2023-12-26T21:20:27.055Z,98.40
2023-12-26T21:23:13.730Z,98.30
2023-12-26T21:26:11.818Z,98.50
2023-12-26T21:28:57.614Z,98.60
2023-12-26T21:31:42.703Z,99.00
2023-12-26T21:34:29.421Z,98.80
2023-12-26T21:37:14.901Z,98.60
2023-12-26T21:40:02.008Z,98.90
2023-12-26T21:42:47.932Z,98.90
2023-12-26T21:45:33.308Z,98.70
2023-12-26T21:48:19.288Z,98.60
2023-12-26T21:51:12.579Z,98.90
2023-12-26T21:53:58.146Z,98.80
2023-12-26T21:56:47.057Z,98.70
2023-12-26T21:59:33.703Z,98.70
2023-12-26T22:02:19.113Z,98.80
2023-12-26T22:05:05.007Z,98.90
2023-12-26T22:07:50.477Z,99.00
2023-12-26T22:10:35.790Z,98.90
2023-12-26T22:13:21.437Z,98.90
2023-12-26T22:16:06.941Z,98.90
2023-12-26T22:18:54.527Z,99.10
2023-12-26T22:21:44.182Z,99.20
2023-12-26T22:24:29.950Z,99.50
2023-12-26T22:27:18.200Z,99.60
2023-12-26T22:30:04.105Z,99.80
2023-12-26T22:32:49.687Z,99.90
2023-12-26T22:35:36.290Z,99.90
2023-12-26T22:38:21.757Z,99.90
2023-12-26T22:41:08.635Z,99.90
2023-12-26T22:43:54.430Z,99.90
2023-12-26T22:46:39.829Z,99.90
2023-12-26T22:49:25.833Z,99.90
2023-12-26T22:52:11.462Z,99.80
2023-12-26T22:54:57.744Z,99.90
2023-12-26T22:57:43.336Z,99.80
2023-12-26T23:00:29.619Z,99.70
2023-12-26T23:03:15.324Z,99.80
2023-12-26T23:06:01.612Z,99.80
2023-12-26T23:08:47.462Z,99.50
2023-12-26T23:11:32.726Z,99.50
2023-12-26T23:14:18.251Z,99.30
2023-12-26T23:17:03.891Z,99.30
2023-12-26T23:19:49.596Z,99.20
2023-12-26T23:22:35.219Z,99.30
2023-12-26T23:25:20.634Z,99.20
2023-12-26T23:28:08.034Z,99.40
2023-12-26T23:30:53.571Z,99.20
2023-12-26T23:33:39.586Z,99.30
2023-12-26T23:36:24.898Z,99.90
2023-12-26T23:39:10.714Z,99.90
2023-12-26T23:42:00.714Z,99.80
2023-12-26T23:44:45.993Z,99.90
2023-12-26T23:47:31.469Z,99.60
2023-12-26T23:50:17.103Z,99.50
2023-12-26T23:53:05.146Z,99.50
2023-12-26T23:55:53.538Z,99.90
2023-12-26T23:58:39.973Z,99.90
